sensor_id;sensor_type;location;lat;lon;timestamp;P1;durP1;ratioP1;P2;durP2;ratioP2
6109;SDS011;3085;49.444;11.054;2022-10-31T00:01:47;20.07;;;6.27;;
6109;SDS011;3085;49.444;11.054;2022-10-31T00:04:13;9.07;;;5.33;;
6109;SDS011;3085;49.444;11.054;2022-10-31T00:06:40;12.93;;;6.50;;
6109;SDS011;3085;49.444;11.054;2022-10-31T00:09:09;12.93;;;5.40;;
6109;SDS011;3085;49.444;11.054;2022-10-31T00:11:36;11.67;;;6.00;;
6109;SDS011;3085;49.444;11.054;2022-10-31T00:14:05;12.47;;;5.93;;
6109;SDS011;3085;49.444;11.054;2022-10-31T00:16:32;29.67;;;6.37;;
6109;SDS011;3085;49.444;11.054;2022-10-31T00:18:59;18.17;;;6.50;;
6109;SDS011;3085;49.444;11.054;2022-10-31T00:21:27;8.63;;;5.60;;
6109;SDS011;3085;49.444;11.054;2022-10-31T00:23:55;9.40;;;5.13;;
6109;SDS011;3085;49.444;11.054;2022-10-31T00:26:22;10.83;;;5.70;;
6109;SDS011;3085;49.444;11.054;2022-10-31T00:28:49;9.90;;;5.23;;
6109;SDS011;3085;49.444;11.054;2022-10-31T00:31:18;10.00;;;5.40;;
6109;SDS011;3085;49.444;11.054;2022-10-31T00:33:45;8.20;;;4.83;;
6109;SDS011;3085;49.444;11.054;2022-10-31T00:36:12;15.40;;;5.37;;
6109;SDS011;3085;49.444;11.054;2022-10-31T00:38:40;9.40;;;5.23;;
6109;SDS011;3085;49.444;11.054;2022-10-31T00:41:07;11.83;;;5.03;;
6109;SDS011;3085;49.444;11.054;2022-10-31T00:43:34;13.60;;;5.70;;
6109;SDS011;3085;49.444;11.054;2022-10-31T00:46:01;10.97;;;5.73;;
6109;SDS011;3085;49.444;11.054;2022-10-31T00:48:30;10.57;;;5.03;;
6109;SDS011;3085;49.444;11.054;2022-10-31T00:50:57;11.30;;;5.90;;
6109;SDS011;3085;49.444;11.054;2022-10-31T00:53:24;8.23;;;4.53;;
6109;SDS011;3085;49.444;11.054;2022-10-31T00:55:50;15.50;;;5.20;;
6109;SDS011;3085;49.444;11.054;2022-10-31T00:58:18;14.33;;;6.80;;
6109;SDS011;3085;49.444;11.054;2022-10-31T01:00:46;7.97;;;5.57;;
6109;SDS011;3085;49.444;11.054;2022-10-31T01:03:19;15.70;;;4.80;;
6109;SDS011;3085;49.444;11.054;2022-10-31T01:05:56;9.83;;;5.23;;
6109;SDS011;3085;49.444;11.054;2022-10-31T01:08:23;10.13;;;5.57;;
6109;SDS011;3085;49.444;11.054;2022-10-31T01:10:57;13.33;;;5.77;;
6109;SDS011;3085;49.444;11.054;2022-10-31T01:13:29;12.70;;;5.80;;
6109;SDS011;3085;49.444;11.054;2022-10-31T01:15:56;34.33;;;7.00;;
6109;SDS011;3085;49.444;11.054;2022-10-31T01:18:24;10.37;;;6.00;;
6109;SDS011;3085;49.444;11.054;2022-10-31T01:21:00;15.90;;;6.50;;
6109;SDS011;3085;49.444;11.054;2022-10-31T01:23:28;9.53;;;5.53;;
6109;SDS011;3085;49.444;11.054;2022-10-31T01:26:03;11.17;;;5.70;;
6109;SDS011;3085;49.444;11.054;2022-10-31T01:28:32;16.80;;;6.20;;
6109;SDS011;3085;49.444;11.054;2022-10-31T01:31:00;21.00;;;6.50;;
6109;SDS011;3085;49.444;11.054;2022-10-31T01:33:28;11.60;;;5.90;;
6109;SDS011;3085;49.444;11.054;2022-10-31T01:35:54;11.83;;;6.00;;
6109;SDS011;3085;49.444;11.054;2022-10-31T01:38:23;11.00;;;4.97;;
6109;SDS011;3085;49.444;11.054;2022-10-31T01:40:50;15.70;;;7.20;;
6109;SDS011;3085;49.444;11.054;2022-10-31T01:43:17;11.63;;;6.47;;
6109;SDS011;3085;49.444;11.054;2022-10-31T01:45:46;9.90;;;5.80;;
6109;SDS011;3085;49.444;11.054;2022-10-31T01:48:18;10.27;;;5.60;;
6109;SDS011;3085;49.444;11.054;2022-10-31T01:50:47;8.80;;;5.03;;
6109;SDS011;3085;49.444;11.054;2022-10-31T01:53:17;10.13;;;5.10;;
6109;SDS011;3085;49.444;11.054;2022-10-31T01:55:45;7.90;;;5.10;;
6109;SDS011;3085;49.444;11.054;2022-10-31T01:58:13;12.30;;;5.73;;
6109;SDS011;3085;49.444;11.054;2022-10-31T02:00:43;11.80;;;4.37;;
6109;SDS011;3085;49.444;11.054;2022-10-31T02:03:15;11.63;;;6.23;;
6109;SDS011;3085;49.444;11.054;2022-10-31T02:05:43;9.47;;;5.73;;
6109;SDS011;3085;49.444;11.054;2022-10-31T02:08:11;10.33;;;5.07;;
6109;SDS011;3085;49.444;11.054;2022-10-31T02:10:42;7.90;;;4.80;;
6109;SDS011;3085;49.444;11.054;2022-10-31T02:13:11;8.70;;;4.53;;
6109;SDS011;3085;49.444;11.054;2022-10-31T02:15:39;9.90;;;4.63;;
6109;SDS011;3085;49.444;11.054;2022-10-31T02:18:08;12.13;;;5.17;;
6109;SDS011;3085;49.444;11.054;2022-10-31T02:20:39;6.83;;;4.37;;
6109;SDS011;3085;49.444;11.054;2022-10-31T02:23:20;10.17;;;5.50;;
6109;SDS011;3085;49.444;11.054;2022-10-31T02:26:15;11.47;;;5.43;;
6109;SDS011;3085;49.444;11.054;2022-10-31T02:29:19;9.37;;;4.30;;
6109;SDS011;3085;49.444;11.054;2022-10-31T02:32:12;14.10;;;4.83;;
6109;SDS011;3085;49.444;11.054;2022-10-31T02:34:48;6.73;;;4.00;;
6109;SDS011;3085;49.444;11.054;2022-10-31T02:37:24;8.73;;;4.80;;
6109;SDS011;3085;49.444;11.054;2022-10-31T02:39:56;9.87;;;5.50;;
6109;SDS011;3085;49.444;11.054;2022-10-31T02:42:32;11.53;;;5.80;;
6109;SDS011;3085;49.444;11.054;2022-10-31T02:45:05;12.77;;;5.70;;
6109;SDS011;3085;49.444;11.054;2022-10-31T02:47:39;7.47;;;5.10;;
6109;SDS011;3085;49.444;11.054;2022-10-31T02:50:10;17.40;;;5.47;;
6109;SDS011;3085;49.444;11.054;2022-10-31T02:52:39;8.23;;;5.23;;
6109;SDS011;3085;49.444;11.054;2022-10-31T02:55:10;7.90;;;5.17;;
6109;SDS011;3085;49.444;11.054;2022-10-31T02:57:38;8.50;;;4.60;;
6109;SDS011;3085;49.444;11.054;2022-10-31T03:00:08;11.17;;;4.27;;
6109;SDS011;3085;49.444;11.054;2022-10-31T03:02:43;17.93;;;5.00;;
6109;SDS011;3085;49.444;11.054;2022-10-31T03:05:28;8.43;;;4.13;;
6109;SDS011;3085;49.444;11.054;2022-10-31T03:08:06;9.37;;;4.50;;
6109;SDS011;3085;49.444;11.054;2022-10-31T03:10:41;7.23;;;3.80;;
6109;SDS011;3085;49.444;11.054;2022-10-31T03:13:12;9.50;;;4.10;;
6109;SDS011;3085;49.444;11.054;2022-10-31T03:15:48;10.00;;;4.40;;
6109;SDS011;3085;49.444;11.054;2022-10-31T03:18:19;9.67;;;4.23;;
6109;SDS011;3085;49.444;11.054;2022-10-31T03:20:52;6.77;;;3.80;;
6109;SDS011;3085;49.444;11.054;2022-10-31T03:23:22;18.17;;;4.30;;
6109;SDS011;3085;49.444;11.054;2022-10-31T03:25:50;6.67;;;4.27;;
6109;SDS011;3085;49.444;11.054;2022-10-31T03:28:20;15.20;;;4.10;;
6109;SDS011;3085;49.444;11.054;2022-10-31T03:30:51;7.70;;;4.30;;
6109;SDS011;3085;49.444;11.054;2022-10-31T03:35:57;7.87;;;4.40;;
6109;SDS011;3085;49.444;11.054;2022-10-31T03:38:28;9.50;;;3.70;;
6109;SDS011;3085;49.444;11.054;2022-10-31T03:40:58;7.63;;;4.30;;
6109;SDS011;3085;49.444;11.054;2022-10-31T03:43:29;10.53;;;3.93;;
6109;SDS011;3085;49.444;11.054;2022-10-31T03:45:58;12.93;;;5.47;;
6109;SDS011;3085;49.444;11.054;2022-10-31T03:48:25;10.60;;;5.93;;
6109;SDS011;3085;49.444;11.054;2022-10-31T03:50:56;9.43;;;5.13;;
6109;SDS011;3085;49.444;11.054;2022-10-31T03:53:31;9.40;;;5.00;;
6109;SDS011;3085;49.444;11.054;2022-10-31T03:56:01;9.13;;;4.70;;
6109;SDS011;3085;49.444;11.054;2022-10-31T03:58:34;10.10;;;4.50;;
6109;SDS011;3085;49.444;11.054;2022-10-31T04:01:04;11.83;;;4.50;;
6109;SDS011;3085;49.444;11.054;2022-10-31T04:03:34;8.87;;;4.20;;
6109;SDS011;3085;49.444;11.054;2022-10-31T04:06:05;9.37;;;4.97;;
6109;SDS011;3085;49.444;11.054;2022-10-31T04:08:36;8.80;;;4.63;;
6109;SDS011;3085;49.444;11.054;2022-10-31T04:11:08;8.43;;;4.63;;
6109;SDS011;3085;49.444;11.054;2022-10-31T04:13:37;9.07;;;5.50;;
6109;SDS011;3085;49.444;11.054;2022-10-31T04:16:07;8.10;;;4.20;;
6109;SDS011;3085;49.444;11.054;2022-10-31T04:18:36;10.30;;;5.33;;
6109;SDS011;3085;49.444;11.054;2022-10-31T04:21:03;11.73;;;4.70;;
6109;SDS011;3085;49.444;11.054;2022-10-31T04:23:33;9.23;;;4.63;;
6109;SDS011;3085;49.444;11.054;2022-10-31T04:26:01;7.03;;;4.20;;
6109;SDS011;3085;49.444;11.054;2022-10-31T04:28:28;9.90;;;4.77;;
6109;SDS011;3085;49.444;11.054;2022-10-31T04:30:55;9.33;;;4.73;;
6109;SDS011;3085;49.444;11.054;2022-10-31T04:33:22;9.20;;;4.50;;
6109;SDS011;3085;49.444;11.054;2022-10-31T04:35:49;11.43;;;5.57;;
6109;SDS011;3085;49.444;11.054;2022-10-31T04:38:17;14.17;;;5.23;;
6109;SDS011;3085;49.444;11.054;2022-10-31T04:40:44;7.50;;;4.43;;
6109;SDS011;3085;49.444;11.054;2022-10-31T04:43:11;9.03;;;5.10;;
6109;SDS011;3085;49.444;11.054;2022-10-31T04:45:38;13.33;;;4.60;;
6109;SDS011;3085;49.444;11.054;2022-10-31T04:48:05;9.97;;;4.90;;
6109;SDS011;3085;49.444;11.054;2022-10-31T04:50:33;10.83;;;4.97;;
6109;SDS011;3085;49.444;11.054;2022-10-31T04:53:00;12.90;;;4.67;;
6109;SDS011;3085;49.444;11.054;2022-10-31T04:55:28;7.80;;;4.87;;
6109;SDS011;3085;49.444;11.054;2022-10-31T04:57:55;6.63;;;4.13;;
6109;SDS011;3085;49.444;11.054;2022-10-31T05:00:22;13.63;;;5.90;;
6109;SDS011;3085;49.444;11.054;2022-10-31T05:02:50;10.93;;;4.77;;
6109;SDS011;3085;49.444;11.054;2022-10-31T05:05:19;18.73;;;5.10;;
6109;SDS011;3085;49.444;11.054;2022-10-31T05:07:47;10.23;;;4.40;;
6109;SDS011;3085;49.444;11.054;2022-10-31T05:10:15;11.70;;;4.70;;
6109;SDS011;3085;49.444;11.054;2022-10-31T05:12:48;9.17;;;4.63;;
6109;SDS011;3085;49.444;11.054;2022-10-31T05:15:17;16.10;;;5.10;;
6109;SDS011;3085;49.444;11.054;2022-10-31T05:17:46;8.83;;;3.87;;
6109;SDS011;3085;49.444;11.054;2022-10-31T05:20:13;7.77;;;4.60;;
6109;SDS011;3085;49.444;11.054;2022-10-31T05:22:42;11.17;;;5.20;;
6109;SDS011;3085;49.444;11.054;2022-10-31T05:25:09;11.10;;;4.77;;
6109;SDS011;3085;49.444;11.054;2022-10-31T05:27:38;13.53;;;5.67;;
6109;SDS011;3085;49.444;11.054;2022-10-31T05:30:07;16.23;;;4.13;;
6109;SDS011;3085;49.444;11.054;2022-10-31T05:32:38;11.30;;;5.17;;
6109;SDS011;3085;49.444;11.054;2022-10-31T05:35:05;9.90;;;4.83;;
6109;SDS011;3085;49.444;11.054;2022-10-31T05:37:34;18.50;;;5.63;;
6109;SDS011;3085;49.444;11.054;2022-10-31T05:40:01;15.20;;;4.90;;
6109;SDS011;3085;49.444;11.054;2022-10-31T05:42:29;9.00;;;4.70;;
6109;SDS011;3085;49.444;11.054;2022-10-31T05:44:55;8.67;;;4.53;;
6109;SDS011;3085;49.444;11.054;2022-10-31T05:47:24;20.30;;;5.80;;
6109;SDS011;3085;49.444;11.054;2022-10-31T05:49:51;10.23;;;4.60;;
6109;SDS011;3085;49.444;11.054;2022-10-31T05:52:17;7.40;;;4.13;;
6109;SDS011;3085;49.444;11.054;2022-10-31T05:54:44;12.23;;;4.37;;
6109;SDS011;3085;49.444;11.054;2022-10-31T05:57:11;11.87;;;4.93;;
6109;SDS011;3085;49.444;11.054;2022-10-31T05:59:38;8.70;;;5.23;;
6109;SDS011;3085;49.444;11.054;2022-10-31T06:02:05;12.47;;;5.10;;
6109;SDS011;3085;49.444;11.054;2022-10-31T06:04:33;15.47;;;7.20;;
6109;SDS011;3085;49.444;11.054;2022-10-31T06:07:00;14.63;;;4.57;;
6109;SDS011;3085;49.444;11.054;2022-10-31T06:09:27;8.73;;;5.30;;
6109;SDS011;3085;49.444;11.054;2022-10-31T06:11:53;9.60;;;4.93;;
6109;SDS011;3085;49.444;11.054;2022-10-31T06:14:20;10.43;;;5.10;;
6109;SDS011;3085;49.444;11.054;2022-10-31T06:16:47;12.63;;;5.03;;
6109;SDS011;3085;49.444;11.054;2022-10-31T06:19:14;12.33;;;5.00;;
6109;SDS011;3085;49.444;11.054;2022-10-31T06:21:42;8.20;;;5.07;;
6109;SDS011;3085;49.444;11.054;2022-10-31T06:24:09;13.90;;;6.10;;
6109;SDS011;3085;49.444;11.054;2022-10-31T06:26:36;11.80;;;5.50;;
6109;SDS011;3085;49.444;11.054;2022-10-31T06:29:03;13.60;;;5.93;;
6109;SDS011;3085;49.444;11.054;2022-10-31T06:31:29;14.23;;;6.60;;
6109;SDS011;3085;49.444;11.054;2022-10-31T06:33:56;10.30;;;5.20;;
6109;SDS011;3085;49.444;11.054;2022-10-31T06:36:23;13.83;;;5.30;;
6109;SDS011;3085;49.444;11.054;2022-10-31T06:38:51;23.23;;;6.50;;
6109;SDS011;3085;49.444;11.054;2022-10-31T06:41:18;15.60;;;7.30;;
6109;SDS011;3085;49.444;11.054;2022-10-31T06:43:45;13.10;;;5.17;;
6109;SDS011;3085;49.444;11.054;2022-10-31T06:46:12;8.60;;;5.53;;
6109;SDS011;3085;49.444;11.054;2022-10-31T06:48:40;12.63;;;5.77;;
6109;SDS011;3085;49.444;11.054;2022-10-31T06:51:07;13.47;;;5.10;;
6109;SDS011;3085;49.444;11.054;2022-10-31T06:53:34;11.13;;;6.03;;
6109;SDS011;3085;49.444;11.054;2022-10-31T06:56:02;11.83;;;5.50;;
6109;SDS011;3085;49.444;11.054;2022-10-31T06:58:30;10.43;;;6.20;;
6109;SDS011;3085;49.444;11.054;2022-10-31T07:00:58;12.80;;;6.37;;
6109;SDS011;3085;49.444;11.054;2022-10-31T07:03:25;27.87;;;9.13;;
6109;SDS011;3085;49.444;11.054;2022-10-31T07:05:54;23.50;;;9.80;;
6109;SDS011;3085;49.444;11.054;2022-10-31T07:08:21;13.37;;;7.30;;
6109;SDS011;3085;49.444;11.054;2022-10-31T07:10:50;17.70;;;7.17;;
6109;SDS011;3085;49.444;11.054;2022-10-31T07:13:20;9.77;;;5.00;;
6109;SDS011;3085;49.444;11.054;2022-10-31T07:15:51;15.50;;;7.30;;
6109;SDS011;3085;49.444;11.054;2022-10-31T07:18:19;18.97;;;7.37;;
6109;SDS011;3085;49.444;11.054;2022-10-31T07:20:47;16.73;;;8.87;;
6109;SDS011;3085;49.444;11.054;2022-10-31T07:23:14;17.83;;;7.57;;
6109;SDS011;3085;49.444;11.054;2022-10-31T07:25:41;20.60;;;8.93;;
6109;SDS011;3085;49.444;11.054;2022-10-31T07:28:08;23.37;;;7.60;;
6109;SDS011;3085;49.444;11.054;2022-10-31T07:30:36;15.83;;;7.37;;
6109;SDS011;3085;49.444;11.054;2022-10-31T07:33:04;19.50;;;6.87;;
6109;SDS011;3085;49.444;11.054;2022-10-31T07:35:31;17.03;;;6.60;;
6109;SDS011;3085;49.444;11.054;2022-10-31T07:38:06;20.63;;;6.67;;
6109;SDS011;3085;49.444;11.054;2022-10-31T07:40:33;17.43;;;5.30;;
6109;SDS011;3085;49.444;11.054;2022-10-31T07:43:01;18.43;;;5.83;;
6109;SDS011;3085;49.444;11.054;2022-10-31T07:45:33;12.80;;;5.00;;
6109;SDS011;3085;49.444;11.054;2022-10-31T07:48:05;11.90;;;5.60;;
6109;SDS011;3085;49.444;11.054;2022-10-31T07:50:33;9.07;;;5.10;;
6109;SDS011;3085;49.444;11.054;2022-10-31T07:53:02;13.70;;;5.87;;
6109;SDS011;3085;49.444;11.054;2022-10-31T07:55:32;17.43;;;6.57;;
6109;SDS011;3085;49.444;11.054;2022-10-31T07:58:01;13.63;;;5.70;;
6109;SDS011;3085;49.444;11.054;2022-10-31T08:00:33;11.60;;;5.20;;
6109;SDS011;3085;49.444;11.054;2022-10-31T08:03:11;13.13;;;5.50;;
6109;SDS011;3085;49.444;11.054;2022-10-31T08:05:39;12.27;;;6.50;;
6109;SDS011;3085;49.444;11.054;2022-10-31T08:08:07;10.87;;;6.47;;
6109;SDS011;3085;49.444;11.054;2022-10-31T08:10:34;13.73;;;6.43;;
6109;SDS011;3085;49.444;11.054;2022-10-31T08:13:03;13.53;;;6.33;;
6109;SDS011;3085;49.444;11.054;2022-10-31T08:15:30;20.67;;;6.70;;
6109;SDS011;3085;49.444;11.054;2022-10-31T08:17:59;16.50;;;7.10;;
6109;SDS011;3085;49.444;11.054;2022-10-31T08:20:28;12.93;;;6.40;;
6109;SDS011;3085;49.444;11.054;2022-10-31T08:22:56;13.87;;;6.70;;
6109;SDS011;3085;49.444;11.054;2022-10-31T08:25:23;13.90;;;6.50;;
6109;SDS011;3085;49.444;11.054;2022-10-31T08:27:51;13.43;;;6.33;;
6109;SDS011;3085;49.444;11.054;2022-10-31T08:30:19;16.80;;;6.43;;
6109;SDS011;3085;49.444;11.054;2022-10-31T08:32:46;19.10;;;7.13;;
6109;SDS011;3085;49.444;11.054;2022-10-31T08:35:13;15.20;;;6.97;;
6109;SDS011;3085;49.444;11.054;2022-10-31T08:37:42;18.00;;;6.23;;
6109;SDS011;3085;49.444;11.054;2022-10-31T08:40:11;11.93;;;6.70;;
6109;SDS011;3085;49.444;11.054;2022-10-31T08:42:38;10.17;;;5.80;;
6109;SDS011;3085;49.444;11.054;2022-10-31T08:45:05;16.83;;;5.97;;
6109;SDS011;3085;49.444;11.054;2022-10-31T08:47:32;11.10;;;6.43;;
6109;SDS011;3085;49.444;11.054;2022-10-31T08:49:59;14.57;;;6.70;;
6109;SDS011;3085;49.444;11.054;2022-10-31T08:52:26;11.10;;;6.10;;
6109;SDS011;3085;49.444;11.054;2022-10-31T08:54:55;11.20;;;5.97;;
6109;SDS011;3085;49.444;11.054;2022-10-31T08:57:21;13.23;;;6.50;;
6109;SDS011;3085;49.444;11.054;2022-10-31T08:59:48;25.30;;;7.00;;
6109;SDS011;3085;49.444;11.054;2022-10-31T09:02:15;23.13;;;7.00;;
6109;SDS011;3085;49.444;11.054;2022-10-31T09:04:42;11.50;;;5.40;;
6109;SDS011;3085;49.444;11.054;2022-10-31T09:07:09;11.40;;;6.00;;
6109;SDS011;3085;49.444;11.054;2022-10-31T09:09:36;15.43;;;7.37;;
6109;SDS011;3085;49.444;11.054;2022-10-31T09:12:04;11.03;;;6.57;;
6109;SDS011;3085;49.444;11.054;2022-10-31T09:14:31;20.30;;;8.07;;
6109;SDS011;3085;49.444;11.054;2022-10-31T09:16:58;17.17;;;7.20;;
6109;SDS011;3085;49.444;11.054;2022-10-31T09:19:24;13.10;;;5.80;;
6109;SDS011;3085;49.444;11.054;2022-10-31T09:21:52;15.80;;;6.37;;
6109;SDS011;3085;49.444;11.054;2022-10-31T09:24:19;11.40;;;6.90;;
6109;SDS011;3085;49.444;11.054;2022-10-31T09:26:46;23.63;;;6.53;;
6109;SDS011;3085;49.444;11.054;2022-10-31T09:29:14;11.23;;;6.40;;
6109;SDS011;3085;49.444;11.054;2022-10-31T09:31:41;18.30;;;5.70;;
6109;SDS011;3085;49.444;11.054;2022-10-31T09:34:08;11.57;;;6.23;;
6109;SDS011;3085;49.444;11.054;2022-10-31T09:36:35;13.93;;;6.60;;
6109;SDS011;3085;49.444;11.054;2022-10-31T09:39:02;10.00;;;5.90;;
6109;SDS011;3085;49.444;11.054;2022-10-31T09:41:32;12.50;;;7.03;;
6109;SDS011;3085;49.444;11.054;2022-10-31T09:44:12;11.37;;;6.17;;
6109;SDS011;3085;49.444;11.054;2022-10-31T09:46:49;11.13;;;5.97;;
6109;SDS011;3085;49.444;11.054;2022-10-31T09:49:29;15.20;;;6.27;;
6109;SDS011;3085;49.444;11.054;2022-10-31T09:52:09;13.50;;;6.70;;
6109;SDS011;3085;49.444;11.054;2022-10-31T09:54:40;15.07;;;7.00;;
6109;SDS011;3085;49.444;11.054;2022-10-31T09:57:12;11.57;;;6.40;;
6109;SDS011;3085;49.444;11.054;2022-10-31T09:59:43;17.43;;;7.10;;
6109;SDS011;3085;49.444;11.054;2022-10-31T10:02:13;12.50;;;5.87;;
6109;SDS011;3085;49.444;11.054;2022-10-31T10:04:44;16.73;;;6.90;;
6109;SDS011;3085;49.444;11.054;2022-10-31T10:07:20;12.53;;;6.33;;
6109;SDS011;3085;49.444;11.054;2022-10-31T10:09:50;19.60;;;6.80;;
6109;SDS011;3085;49.444;11.054;2022-10-31T10:12:19;12.83;;;6.80;;
6109;SDS011;3085;49.444;11.054;2022-10-31T10:15:04;16.10;;;7.27;;
6109;SDS011;3085;49.444;11.054;2022-10-31T10:17:47;16.70;;;6.60;;
6109;SDS011;3085;49.444;11.054;2022-10-31T10:20:27;12.33;;;6.80;;
6109;SDS011;3085;49.444;11.054;2022-10-31T10:23:10;11.60;;;6.70;;
6109;SDS011;3085;49.444;11.054;2022-10-31T10:25:47;19.30;;;7.50;;
6109;SDS011;3085;49.444;11.054;2022-10-31T10:28:20;16.37;;;6.67;;
6109;SDS011;3085;49.444;11.054;2022-10-31T10:30:52;14.60;;;7.00;;
6109;SDS011;3085;49.444;11.054;2022-10-31T10:33:23;10.87;;;6.40;;
6109;SDS011;3085;49.444;11.054;2022-10-31T10:35:57;12.60;;;6.40;;
6109;SDS011;3085;49.444;11.054;2022-10-31T10:38:27;17.23;;;6.63;;
6109;SDS011;3085;49.444;11.054;2022-10-31T10:40:56;17.20;;;6.30;;
6109;SDS011;3085;49.444;11.054;2022-10-31T10:43:26;13.60;;;5.73;;
6109;SDS011;3085;49.444;11.054;2022-10-31T10:46:04;14.03;;;6.50;;
6109;SDS011;3085;49.444;11.054;2022-10-31T10:48:58;14.37;;;6.97;;
6109;SDS011;3085;49.444;11.054;2022-10-31T10:51:32;14.83;;;6.87;;
6109;SDS011;3085;49.444;11.054;2022-10-31T10:54:13;13.30;;;6.47;;
6109;SDS011;3085;49.444;11.054;2022-10-31T10:57:01;14.73;;;6.10;;
6109;SDS011;3085;49.444;11.054;2022-10-31T10:59:37;9.80;;;5.87;;
6109;SDS011;3085;49.444;11.054;2022-10-31T11:02:08;11.17;;;6.00;;
6109;SDS011;3085;49.444;11.054;2022-10-31T11:04:43;13.20;;;7.27;;
6109;SDS011;3085;49.444;11.054;2022-10-31T11:07:13;11.10;;;6.30;;
6109;SDS011;3085;49.444;11.054;2022-10-31T11:09:40;18.47;;;7.67;;
6109;SDS011;3085;49.444;11.054;2022-10-31T11:12:08;14.87;;;6.40;;
6109;SDS011;3085;49.444;11.054;2022-10-31T11:14:42;10.93;;;6.57;;
6109;SDS011;3085;49.444;11.054;2022-10-31T11:17:17;10.57;;;6.50;;
6109;SDS011;3085;49.444;11.054;2022-10-31T11:20:03;12.17;;;6.57;;
6109;SDS011;3085;49.444;11.054;2022-10-31T11:22:32;16.27;;;6.93;;
6109;SDS011;3085;49.444;11.054;2022-10-31T11:24:59;9.90;;;6.23;;
6109;SDS011;3085;49.444;11.054;2022-10-31T11:27:26;12.33;;;5.83;;
6109;SDS011;3085;49.444;11.054;2022-10-31T11:30:04;12.57;;;6.00;;
6109;SDS011;3085;49.444;11.054;2022-10-31T11:32:33;16.13;;;7.00;;
6109;SDS011;3085;49.444;11.054;2022-10-31T11:35:02;10.93;;;6.17;;
6109;SDS011;3085;49.444;11.054;2022-10-31T11:37:35;8.70;;;5.30;;
6109;SDS011;3085;49.444;11.054;2022-10-31T11:40:15;8.97;;;5.10;;
6109;SDS011;3085;49.444;11.054;2022-10-31T11:42:43;16.00;;;5.97;;
6109;SDS011;3085;49.444;11.054;2022-10-31T11:45:13;17.13;;;5.57;;
6109;SDS011;3085;49.444;11.054;2022-10-31T11:47:44;13.37;;;6.43;;
6109;SDS011;3085;49.444;11.054;2022-10-31T11:50:18;16.93;;;5.83;;
6109;SDS011;3085;49.444;11.054;2022-10-31T11:52:46;9.73;;;6.00;;
6109;SDS011;3085;49.444;11.054;2022-10-31T11:55:15;20.80;;;6.17;;
6109;SDS011;3085;49.444;11.054;2022-10-31T11:57:44;9.80;;;5.60;;
6109;SDS011;3085;49.444;11.054;2022-10-31T12:00:19;12.10;;;6.63;;
6109;SDS011;3085;49.444;11.054;2022-10-31T12:02:49;9.63;;;5.47;;
6109;SDS011;3085;49.444;11.054;2022-10-31T12:05:17;10.73;;;5.50;;
6109;SDS011;3085;49.444;11.054;2022-10-31T12:07:46;13.63;;;6.20;;
6109;SDS011;3085;49.444;11.054;2022-10-31T12:10:14;12.90;;;5.47;;
6109;SDS011;3085;49.444;11.054;2022-10-31T12:12:51;12.63;;;6.57;;
6109;SDS011;3085;49.444;11.054;2022-10-31T12:15:33;12.77;;;6.00;;
6109;SDS011;3085;49.444;11.054;2022-10-31T12:21:02;15.20;;;6.17;;
6109;SDS011;3085;49.444;11.054;2022-10-31T12:23:44;12.17;;;5.13;;
6109;SDS011;3085;49.444;11.054;2022-10-31T12:26:22;10.30;;;5.30;;
6109;SDS011;3085;49.444;11.054;2022-10-31T12:29:02;11.33;;;5.60;;
6109;SDS011;3085;49.444;11.054;2022-10-31T12:31:46;13.50;;;6.50;;
6109;SDS011;3085;49.444;11.054;2022-10-31T12:34:32;10.37;;;5.37;;
6109;SDS011;3085;49.444;11.054;2022-10-31T12:37:23;11.50;;;5.23;;
6109;SDS011;3085;49.444;11.054;2022-10-31T12:40:00;12.03;;;6.37;;
6109;SDS011;3085;49.444;11.054;2022-10-31T12:42:45;11.13;;;5.47;;
6109;SDS011;3085;49.444;11.054;2022-10-31T12:45:25;10.70;;;6.40;;
6109;SDS011;3085;49.444;11.054;2022-10-31T12:51:17;12.10;;;4.37;;
6109;SDS011;3085;49.444;11.054;2022-10-31T12:54:01;11.60;;;5.37;;
6109;SDS011;3085;49.444;11.054;2022-10-31T12:56:47;22.50;;;6.17;;
6109;SDS011;3085;49.444;11.054;2022-10-31T12:59:22;11.47;;;6.47;;
6109;SDS011;3085;49.444;11.054;2022-10-31T13:01:55;12.20;;;5.57;;
6109;SDS011;3085;49.444;11.054;2022-10-31T13:04:30;13.20;;;4.87;;
6109;SDS011;3085;49.444;11.054;2022-10-31T13:07:08;9.00;;;4.40;;
6109;SDS011;3085;49.444;11.054;2022-10-31T13:09:40;8.27;;;4.60;;
6109;SDS011;3085;49.444;11.054;2022-10-31T13:12:15;10.83;;;6.10;;
6109;SDS011;3085;49.444;11.054;2022-10-31T13:14:45;7.57;;;4.83;;
6109;SDS011;3085;49.444;11.054;2022-10-31T13:17:18;12.57;;;6.30;;
6109;SDS011;3085;49.444;11.054;2022-10-31T13:19:48;14.23;;;5.97;;
6109;SDS011;3085;49.444;11.054;2022-10-31T13:22:20;9.30;;;5.10;;
6109;SDS011;3085;49.444;11.054;2022-10-31T13:24:52;14.33;;;6.10;;
6109;SDS011;3085;49.444;11.054;2022-10-31T13:27:23;13.60;;;5.57;;
6109;SDS011;3085;49.444;11.054;2022-10-31T13:29:56;9.80;;;5.00;;
6109;SDS011;3085;49.444;11.054;2022-10-31T13:32:27;18.30;;;5.20;;
6109;SDS011;3085;49.444;11.054;2022-10-31T13:35:04;12.60;;;5.90;;
6109;SDS011;3085;49.444;11.054;2022-10-31T13:37:43;9.67;;;5.70;;
6109;SDS011;3085;49.444;11.054;2022-10-31T13:40:17;9.07;;;5.40;;
6109;SDS011;3085;49.444;11.054;2022-10-31T13:42:55;18.57;;;6.70;;
6109;SDS011;3085;49.444;11.054;2022-10-31T13:45:26;15.50;;;5.30;;
6109;SDS011;3085;49.444;11.054;2022-10-31T13:47:57;10.13;;;4.80;;
6109;SDS011;3085;49.444;11.054;2022-10-31T13:50:28;11.13;;;5.30;;
6109;SDS011;3085;49.444;11.054;2022-10-31T13:53:12;18.07;;;5.80;;
6109;SDS011;3085;49.444;11.054;2022-10-31T13:55:40;15.23;;;5.60;;
6109;SDS011;3085;49.444;11.054;2022-10-31T13:58:20;8.87;;;5.60;;
6109;SDS011;3085;49.444;11.054;2022-10-31T14:03:46;14.80;;;5.40;;
6109;SDS011;3085;49.444;11.054;2022-10-31T14:06:23;12.33;;;5.90;;
6109;SDS011;3085;49.444;11.054;2022-10-31T14:09:02;11.03;;;6.10;;
6109;SDS011;3085;49.444;11.054;2022-10-31T14:11:29;12.20;;;5.90;;
6109;SDS011;3085;49.444;11.054;2022-10-31T14:13:56;16.57;;;6.07;;
6109;SDS011;3085;49.444;11.054;2022-10-31T14:16:26;9.63;;;6.13;;
6109;SDS011;3085;49.444;11.054;2022-10-31T14:18:58;12.03;;;6.57;;
6109;SDS011;3085;49.444;11.054;2022-10-31T14:21:30;20.03;;;6.93;;
6109;SDS011;3085;49.444;11.054;2022-10-31T14:24:12;12.97;;;7.27;;
6109;SDS011;3085;49.444;11.054;2022-10-31T14:26:51;16.00;;;6.50;;
6109;SDS011;3085;49.444;11.054;2022-10-31T14:29:24;20.00;;;7.53;;
6109;SDS011;3085;49.444;11.054;2022-10-31T14:31:57;13.50;;;5.80;;
6109;SDS011;3085;49.444;11.054;2022-10-31T14:34:28;12.00;;;6.10;;
6109;SDS011;3085;49.444;11.054;2022-10-31T14:37:07;11.50;;;5.60;;
6109;SDS011;3085;49.444;11.054;2022-10-31T14:40:00;13.67;;;6.00;;
6109;SDS011;3085;49.444;11.054;2022-10-31T14:42:51;17.53;;;5.50;;
6109;SDS011;3085;49.444;11.054;2022-10-31T14:45:33;12.30;;;6.33;;
6109;SDS011;3085;49.444;11.054;2022-10-31T14:48:17;18.17;;;7.57;;
6109;SDS011;3085;49.444;11.054;2022-10-31T14:51:03;17.37;;;6.80;;
6109;SDS011;3085;49.444;11.054;2022-10-31T14:53:46;14.77;;;7.83;;
6109;SDS011;3085;49.444;11.054;2022-10-31T14:56:23;20.77;;;8.90;;
6109;SDS011;3085;49.444;11.054;2022-10-31T14:58:53;15.40;;;8.03;;
6109;SDS011;3085;49.444;11.054;2022-10-31T15:01:26;40.50;;;19.40;;
6109;SDS011;3085;49.444;11.054;2022-10-31T15:04:04;47.93;;;23.97;;
6109;SDS011;3085;49.444;11.054;2022-10-31T15:06:39;44.37;;;19.83;;
6109;SDS011;3085;49.444;11.054;2022-10-31T15:12:21;18.60;;;8.90;;
6109;SDS011;3085;49.444;11.054;2022-10-31T15:14:52;116.50;;;51.87;;
6109;SDS011;3085;49.444;11.054;2022-10-31T15:17:20;87.83;;;38.67;;
6109;SDS011;3085;49.444;11.054;2022-10-31T15:19:48;33.33;;;15.93;;
6109;SDS011;3085;49.444;11.054;2022-10-31T15:22:16;46.33;;;16.50;;
6109;SDS011;3085;49.444;11.054;2022-10-31T15:24:44;32.70;;;15.30;;
6109;SDS011;3085;49.444;11.054;2022-10-31T15:27:12;18.67;;;10.07;;
6109;SDS011;3085;49.444;11.054;2022-10-31T15:29:49;24.20;;;10.57;;